createdAt,value
2023-04-08T00:01:06.877Z,8.30
2023-04-08T00:03:33.863Z,8.20
2023-04-08T00:06:02.771Z,8.30
2023-04-08T00:08:29.619Z,8.30
2023-04-08T00:10:56.856Z,8.40
2023-04-08T00:13:24.037Z,8.50
2023-04-08T00:15:51.149Z,8.50
2023-04-08T00:18:17.983Z,8.40
2023-04-08T00:20:45.224Z,8.40
2023-04-08T00:23:12.328Z,8.50
2023-04-08T00:25:39.527Z,8.40
2023-04-08T00:28:06.513Z,8.30
2023-04-08T00:30:34.818Z,8.30
2023-04-08T00:33:01.968Z,8.30
2023-04-08T00:35:29.519Z,8.30
2023-04-08T00:37:56.603Z,8.30
2023-04-08T00:40:23.383Z,8.30
2023-04-08T00:42:50.681Z,8.30
2023-04-08T00:45:17.873Z,8.30
2023-04-08T00:47:44.885Z,8.30
2023-04-08T00:50:12.157Z,8.30
2023-04-08T00:52:39.308Z,8.30
2023-04-08T00:55:07.050Z,8.30
2023-04-08T00:57:34.089Z,8.20
2023-04-08T01:00:01.092Z,8.20
2023-04-08T01:02:57.887Z,8.30
2023-04-08T01:05:30.908Z,8.30
2023-04-08T01:08:02.126Z,8.30
2023-04-08T01:10:35.146Z,8.20
2023-04-08T01:13:03.931Z,8.20
2023-04-08T01:15:33.519Z,8.20
2023-04-08T01:18:02.361Z,8.20
2023-04-08T01:20:29.933Z,8.20
2023-04-08T01:23:30.276Z,8.20
2023-04-08T01:25:57.780Z,8.10
2023-04-08T01:28:28.248Z,8.20
2023-04-08T01:31:00.609Z,8.10
2023-04-08T01:33:29.232Z,8.10
2023-04-08T01:35:57.592Z,8.10
2023-04-08T01:38:26.630Z,8.10
2023-04-08T01:40:56.136Z,8.10
2023-04-08T01:43:24.924Z,8.10
2023-04-08T01:45:58.589Z,8.10
2023-04-08T01:48:27.089Z,8.10
2023-04-08T01:50:55.965Z,8.20
2023-04-08T01:53:23.148Z,8.20
2023-04-08T01:55:55.728Z,8.10
2023-04-08T01:58:25.192Z,8.20
2023-04-08T02:00:54.480Z,8.30
2023-04-08T02:03:24.314Z,8.20
2023-04-08T02:05:51.274Z,8.10
2023-04-08T02:08:18.222Z,8.20
2023-04-08T02:10:45.029Z,8.10
2023-04-08T02:13:12.206Z,8.10
2023-04-08T02:15:46.719Z,8.10
2023-04-08T02:18:21.034Z,8.10
2023-04-08T02:20:54.759Z,8.10
2023-04-08T02:23:25.247Z,8.00
2023-04-08T02:25:55.842Z,8.00
2023-04-08T02:28:23.837Z,8.20
2023-04-08T02:30:52.909Z,8.10
2023-04-08T02:33:22.588Z,8.00
2023-04-08T02:35:52.459Z,7.90
2023-04-08T02:38:19.687Z,7.90
2023-04-08T02:40:46.498Z,7.90
2023-04-08T02:43:13.401Z,7.90
2023-04-08T02:45:42.829Z,7.80
2023-04-08T02:48:10.314Z,7.80
2023-04-08T02:50:37.584Z,7.80
2023-04-08T02:53:04.961Z,8.00
2023-04-08T02:55:31.754Z,7.90
2023-04-08T02:57:58.692Z,7.90
2023-04-08T03:00:25.893Z,7.80
2023-04-08T03:02:53.142Z,7.80
2023-04-08T03:05:20.150Z,7.70
2023-04-08T03:07:46.951Z,7.80
2023-04-08T03:10:13.898Z,7.80
2023-04-08T03:12:40.896Z,7.80
2023-04-08T03:15:08.539Z,7.80
2023-04-08T03:17:35.824Z,7.80
2023-04-08T03:20:05.266Z,7.70
2023-04-08T03:22:33.176Z,7.70
2023-04-08T03:25:00.426Z,7.80
2023-04-08T03:27:27.524Z,7.70
2023-04-08T03:29:54.437Z,7.90
2023-04-08T03:32:21.785Z,7.90
2023-04-08T03:34:51.140Z,7.80
2023-04-08T03:37:18.728Z,7.80
2023-04-08T03:39:46.740Z,7.80
2023-04-08T03:42:13.628Z,7.90
2023-04-08T03:44:40.648Z,7.90
2023-04-08T03:47:07.502Z,7.80
2023-04-08T03:49:34.525Z,7.90
2023-04-08T03:52:01.631Z,7.80
2023-04-08T03:54:28.804Z,7.80
2023-04-08T03:56:55.862Z,7.90
2023-04-08T03:59:23.226Z,7.90
2023-04-08T04:01:51.433Z,7.90
2023-04-08T04:04:18.534Z,7.90
2023-04-08T04:06:45.731Z,7.80
2023-04-08T04:09:12.749Z,7.70
2023-04-08T04:11:39.504Z,8.00
2023-04-08T04:14:06.567Z,7.90
2023-04-08T04:16:33.389Z,7.80
2023-04-08T04:19:00.424Z,7.90
2023-04-08T04:21:27.392Z,7.80
2023-04-08T04:23:54.230Z,7.80
2023-04-08T04:26:21.293Z,7.80
2023-04-08T04:28:48.643Z,7.80
2023-04-08T04:31:23.975Z,7.70
2023-04-08T04:33:50.822Z,7.90
2023-04-08T04:36:17.906Z,7.90
2023-04-08T04:38:46.172Z,7.80
2023-04-08T04:41:13.710Z,7.80
2023-04-08T04:43:41.159Z,7.80
2023-04-08T04:46:09.180Z,7.70
2023-04-08T04:48:36.467Z,7.80
2023-04-08T04:51:03.890Z,7.80
2023-04-08T04:53:31.917Z,7.70
2023-04-08T04:56:01.594Z,7.80
2023-04-08T04:58:28.803Z,7.70
2023-04-08T05:00:56.798Z,7.80
2023-04-08T05:03:23.900Z,7.90
2023-04-08T05:05:54.432Z,7.80
2023-04-08T05:08:22.508Z,7.70
2023-04-08T05:10:52.009Z,7.70
2023-04-08T05:13:19.328Z,7.80
2023-04-08T05:15:46.518Z,7.80
2023-04-08T05:18:13.493Z,7.80
2023-04-08T05:20:40.759Z,7.80
2023-04-08T05:23:08.132Z,7.80
2023-04-08T05:25:35.073Z,7.80
2023-04-08T05:28:02.237Z,7.80
2023-04-08T05:30:29.369Z,7.80
2023-04-08T05:32:59.311Z,7.70
2023-04-08T05:35:27.278Z,7.80
2023-04-08T05:37:54.522Z,8.00
2023-04-08T05:40:21.569Z,7.90
2023-04-08T05:42:48.420Z,7.90
2023-04-08T05:45:16.385Z,8.00
2023-04-08T05:47:43.678Z,7.90
2023-04-08T05:50:11.685Z,7.90
2023-04-08T05:52:44.030Z,7.90
2023-04-08T05:55:11.960Z,7.90
2023-04-08T05:57:38.757Z,7.90
2023-04-08T06:00:08.608Z,7.90
2023-04-08T06:02:36.662Z,7.90
2023-04-08T06:05:04.861Z,8.00
2023-04-08T06:07:33.016Z,8.10
2023-04-08T06:10:00.180Z,8.00
2023-04-08T06:12:27.287Z,8.00
2023-04-08T06:14:57.393Z,8.20
2023-04-08T06:17:24.737Z,8.20
2023-04-08T06:19:51.957Z,8.20
2023-04-08T06:22:19.159Z,8.30
2023-04-08T06:24:48.320Z,8.30
2023-04-08T06:27:16.046Z,8.30
2023-04-08T06:29:43.382Z,8.30
2023-04-08T06:32:10.913Z,8.40
2023-04-08T06:34:38.254Z,8.50
2023-04-08T06:37:06.482Z,8.60
2023-04-08T06:39:33.779Z,8.60
2023-04-08T06:42:00.582Z,8.60
2023-04-08T06:44:27.643Z,8.70
2023-04-08T06:46:54.495Z,8.80
2023-04-08T06:49:21.686Z,8.70
2023-04-08T06:51:49.175Z,8.70
2023-04-08T06:54:15.957Z,8.80
2023-04-08T06:56:43.365Z,8.80
2023-04-08T06:59:10.451Z,8.80
2023-04-08T07:01:37.664Z,8.70
2023-04-08T07:04:04.867Z,8.50
2023-04-08T07:06:32.422Z,8.50
2023-04-08T07:08:59.190Z,8.50
2023-04-08T07:11:26.770Z,8.60
2023-04-08T07:13:53.905Z,8.60
2023-04-08T07:16:21.567Z,8.40
2023-04-08T07:18:49.290Z,8.30
2023-04-08T07:21:18.378Z,8.40
2023-04-08T07:23:45.741Z,8.60
2023-04-08T07:26:12.850Z,8.80
2023-04-08T07:28:41.357Z,8.80
2023-04-08T07:31:16.209Z,8.90
2023-04-08T07:33:44.472Z,8.90
2023-04-08T07:36:12.975Z,9.10
2023-04-08T07:38:40.949Z,9.30
2023-04-08T07:41:08.013Z,9.30
2023-04-08T07:43:37.015Z,9.30
2023-04-08T07:46:05.812Z,9.30
2023-04-08T07:48:33.914Z,9.20
2023-04-08T07:51:08.502Z,9.40
2023-04-08T07:53:37.731Z,9.60
2023-04-08T07:56:11.665Z,9.70
2023-04-08T07:58:38.751Z,9.60
2023-04-08T08:01:06.486Z,9.70
2023-04-08T08:03:34.150Z,9.70
2023-04-08T08:06:01.813Z,9.70
2023-04-08T08:08:28.624Z,9.60
2023-04-08T08:10:55.600Z,9.70
2023-04-08T08:13:22.766Z,9.70
2023-04-08T08:15:53.591Z,9.80
2023-04-08T08:18:21.113Z,9.70
2023-04-08T08:20:47.955Z,9.70
2023-04-08T08:23:15.080Z,9.80
2023-04-08T08:25:42.178Z,9.90
2023-04-08T08:28:09.130Z,9.90
2023-04-08T08:30:36.062Z,9.80
2023-04-08T08:33:03.267Z,9.70
2023-04-08T08:35:30.135Z,9.70
2023-04-08T08:37:57.349Z,9.90
2023-04-08T08:40:24.218Z,10.00
2023-04-08T08:42:52.561Z,9.80
2023-04-08T08:45:22.770Z,9.90
2023-04-08T08:47:51.234Z,10.00
2023-04-08T08:50:18.725Z,10.10
2023-04-08T08:52:50.485Z,10.20
2023-04-08T08:55:41.334Z,10.20
2023-04-08T08:58:10.852Z,10.40
2023-04-08T09:00:41.408Z,10.40
2023-04-08T09:03:16.165Z,10.60
2023-04-08T09:05:56.252Z,10.70
2023-04-08T09:08:25.136Z,10.90
2023-04-08T09:10:53.713Z,10.80
2023-04-08T09:13:23.769Z,10.60
2023-04-08T09:16:11.277Z,10.60
2023-04-08T09:18:39.638Z,10.70
2023-04-08T09:21:08.547Z,10.30
2023-04-08T09:23:43.592Z,10.50
2023-04-08T09:26:10.909Z,10.60
2023-04-08T09:28:39.088Z,10.70
2023-04-08T09:31:28.059Z,11.00
2023-04-08T09:34:02.236Z,11.10
2023-04-08T09:36:29.351Z,10.90
2023-04-08T09:38:56.950Z,11.00
2023-04-08T09:41:24.740Z,11.00
2023-04-08T09:43:55.167Z,11.20
2023-04-08T09:46:33.693Z,11.30
2023-04-08T09:49:13.240Z,11.30
2023-04-08T09:51:53.280Z,11.10
2023-04-08T09:54:23.218Z,11.20
2023-04-08T09:57:00.906Z,11.30
2023-04-08T09:59:31.415Z,11.30
2023-04-08T10:02:04.970Z,11.50
2023-04-08T10:04:35.774Z,11.50
2023-04-08T10:07:06.641Z,11.80
2023-04-08T10:09:34.208Z,11.70
2023-04-08T10:12:03.298Z,11.60
2023-04-08T10:14:30.081Z,11.50
2023-04-08T10:17:30.676Z,11.50
2023-04-08T10:19:58.867Z,11.50
2023-04-08T10:22:28.674Z,11.60
2023-04-08T10:25:17.195Z,11.70
2023-04-08T10:27:45.470Z,11.70
2023-04-08T10:30:27.497Z,11.70
2023-04-08T10:33:02.115Z,11.80
2023-04-08T10:35:42.773Z,11.80
2023-04-08T10:38:09.835Z,11.90
2023-04-08T10:40:39.125Z,11.70
2023-04-08T10:43:07.271Z,11.80
2023-04-08T10:45:34.751Z,11.90
2023-04-08T10:48:24.821Z,11.90
2023-04-08T10:51:03.010Z,12.00
2023-04-08T10:53:33.513Z,11.90
2023-04-08T10:56:07.883Z,11.80
2023-04-08T10:58:36.553Z,11.90
2023-04-08T11:01:05.603Z,12.00
2023-04-08T11:03:34.334Z,11.80
2023-04-08T11:06:02.575Z,11.90
2023-04-08T11:08:32.447Z,12.20
2023-04-08T11:11:04.130Z,12.00
2023-04-08T11:13:31.791Z,12.10
2023-04-08T11:16:00.449Z,11.90
2023-04-08T11:18:27.869Z,12.10
2023-04-08T11:20:55.110Z,12.10
2023-04-08T11:23:23.376Z,12.40
2023-04-08T11:25:51.464Z,12.50
2023-04-08T11:28:19.101Z,12.60
2023-04-08T11:30:46.073Z,12.60
2023-04-08T11:33:14.133Z,12.40
2023-04-08T11:35:42.043Z,12.80
2023-04-08T11:38:10.499Z,12.60
2023-04-08T11:40:38.109Z,12.80
2023-04-08T11:43:12.479Z,13.10
2023-04-08T11:45:40.747Z,13.00
2023-04-08T11:48:16.760Z,13.00
2023-04-08T11:50:45.243Z,12.80
2023-04-08T11:53:21.911Z,12.40
2023-04-08T11:55:49.617Z,12.30
2023-04-08T11:58:16.867Z,12.10
2023-04-08T12:00:44.456Z,12.00
2023-04-08T12:03:12.555Z,11.80
2023-04-08T12:05:39.622Z,11.90
2023-04-08T12:08:06.639Z,12.00
2023-04-08T12:10:33.454Z,12.00
2023-04-08T12:13:00.755Z,11.80
2023-04-08T12:15:27.681Z,11.70
2023-04-08T12:17:54.491Z,11.60
2023-04-08T12:20:21.441Z,11.70
2023-04-08T12:22:48.317Z,11.70
2023-04-08T12:25:15.431Z,11.70
2023-04-08T12:27:42.328Z,11.70
2023-04-08T12:30:09.838Z,11.70
2023-04-08T12:32:36.652Z,11.60
2023-04-08T12:35:03.553Z,11.60
2023-04-08T12:37:30.631Z,11.50
2023-04-08T12:39:57.803Z,11.50
2023-04-08T12:42:24.965Z,11.70
2023-04-08T12:44:52.030Z,11.60
2023-04-08T12:47:19.775Z,11.60
2023-04-08T12:49:49.689Z,11.70
2023-04-08T12:52:17.433Z,11.80
2023-04-08T12:54:45.160Z,11.90
2023-04-08T12:57:12.646Z,12.10
2023-04-08T12:59:40.396Z,12.10
2023-04-08T13:02:08.137Z,12.00
2023-04-08T13:04:35.412Z,12.10
2023-04-08T13:07:02.510Z,12.10
2023-04-08T13:09:31.151Z,12.00
2023-04-08T13:11:58.518Z,12.10
2023-04-08T13:14:25.740Z,12.10
2023-04-08T13:16:52.709Z,12.00
2023-04-08T13:19:19.979Z,12.00
2023-04-08T13:21:47.083Z,11.90
2023-04-08T13:24:14.243Z,12.10
2023-04-08T13:26:41.392Z,12.40
2023-04-08T13:29:08.505Z,12.50
2023-04-08T13:31:35.487Z,12.80
2023-04-08T13:34:02.522Z,12.90
2023-04-08T13:36:29.462Z,13.10
2023-04-08T13:38:56.901Z,13.10
2023-04-08T13:41:25.509Z,13.10
2023-04-08T13:43:52.529Z,13.30
2023-04-08T13:46:19.356Z,13.30
2023-04-08T13:48:46.573Z,13.20
2023-04-08T13:51:13.625Z,13.20
2023-04-08T13:53:40.881Z,12.90
2023-04-08T13:56:08.269Z,12.60
2023-04-08T13:58:35.081Z,12.70
2023-04-08T14:01:01.923Z,12.70
2023-04-08T14:03:28.951Z,13.20
2023-04-08T14:05:56.196Z,13.30
2023-04-08T14:08:26.245Z,13.50
2023-04-08T14:10:55.874Z,13.50
2023-04-08T14:13:22.808Z,13.30
2023-04-08T14:15:52.640Z,13.20
2023-04-08T14:18:19.713Z,13.30
2023-04-08T14:20:46.672Z,13.30
2023-04-08T14:23:13.776Z,13.10
2023-04-08T14:25:41.183Z,13.20
2023-04-08T14:28:08.355Z,12.90
2023-04-08T14:30:37.932Z,12.80
2023-04-08T14:33:05.716Z,12.80
2023-04-08T14:35:32.703Z,12.90
2023-04-08T14:38:00.152Z,12.80
2023-04-08T14:40:27.146Z,12.60
2023-04-08T14:42:54.252Z,12.50
2023-04-08T14:45:22.152Z,12.70
2023-04-08T14:47:49.052Z,12.50
2023-04-08T14:50:16.308Z,12.40
2023-04-08T14:52:45.203Z,12.20
2023-04-08T14:55:12.640Z,12.10
2023-04-08T14:57:39.538Z,12.10
2023-04-08T15:00:07.774Z,12.10
2023-04-08T15:02:35.039Z,12.20
2023-04-08T15:05:02.206Z,12.20
2023-04-08T15:07:29.330Z,12.10
2023-04-08T15:09:57.048Z,12.50
2023-04-08T15:12:24.979Z,12.60
2023-04-08T15:14:51.895Z,12.70
2023-04-08T15:17:18.771Z,12.60
2023-04-08T15:19:46.492Z,12.80
2023-04-08T15:22:13.724Z,12.70
2023-04-08T15:24:40.876Z,13.00
2023-04-08T15:27:08.045Z,12.80
2023-04-08T15:29:35.156Z,13.10
2023-04-08T15:32:02.453Z,13.00
2023-04-08T15:34:29.452Z,12.80
2023-04-08T15:36:59.278Z,12.70
2023-04-08T15:39:26.727Z,12.80
2023-04-08T15:41:54.105Z,12.70
2023-04-08T15:44:20.960Z,12.70
2023-04-08T15:46:47.801Z,12.50
2023-04-08T15:49:15.268Z,12.60
2023-04-08T15:51:44.654Z,12.70
2023-04-08T15:54:11.862Z,12.50
2023-04-08T15:56:39.305Z,12.60
2023-04-08T15:59:06.357Z,12.30
2023-04-08T16:01:33.737Z,12.40
2023-04-08T16:04:01.163Z,12.30
2023-04-08T16:06:29.682Z,12.00
2023-04-08T16:08:57.200Z,12.10
2023-04-08T16:11:25.317Z,12.30
2023-04-08T16:13:52.722Z,12.30
2023-04-08T16:16:19.883Z,12.30
2023-04-08T16:18:47.779Z,12.30
2023-04-08T16:21:14.789Z,12.10
2023-04-08T16:23:41.949Z,12.20
2023-04-08T16:26:09.092Z,12.00
2023-04-08T16:28:40.333Z,12.00
2023-04-08T16:31:07.702Z,11.80
2023-04-08T16:33:34.490Z,11.80
2023-04-08T16:36:01.713Z,11.70
2023-04-08T16:38:28.516Z,11.70
2023-04-08T16:40:58.536Z,11.80
2023-04-08T16:43:25.939Z,11.60
2023-04-08T16:45:53.644Z,11.50
2023-04-08T16:48:20.853Z,11.50
2023-04-08T16:50:47.699Z,11.30
2023-04-08T16:53:14.542Z,11.30
2023-04-08T16:55:41.534Z,11.20
2023-04-08T16:58:08.766Z,11.60
2023-04-08T17:00:36.716Z,11.40
2023-04-08T17:03:03.947Z,11.40
2023-04-08T17:05:31.001Z,11.60
2023-04-08T17:07:57.907Z,11.70
2023-04-08T17:10:25.231Z,11.60
2023-04-08T17:12:52.125Z,11.60
2023-04-08T17:15:19.817Z,11.70
2023-04-08T17:17:47.991Z,11.90
2023-04-08T17:20:15.848Z,11.90
2023-04-08T17:22:43.130Z,11.80
2023-04-08T17:25:11.054Z,11.70
2023-04-08T17:27:37.871Z,11.60
2023-04-08T17:30:05.203Z,11.50
2023-04-08T17:32:32.552Z,11.20
2023-04-08T17:34:59.890Z,11.10
2023-04-08T17:37:27.013Z,11.30
2023-04-08T17:39:53.793Z,11.20
2023-04-08T17:42:22.976Z,11.20
2023-04-08T17:44:50.193Z,11.10
2023-04-08T17:47:17.441Z,11.00
2023-04-08T17:49:44.279Z,10.80
2023-04-08T17:52:11.122Z,10.80
2023-04-08T17:54:38.078Z,10.70
2023-04-08T17:57:05.227Z,10.60
2023-04-08T17:59:32.176Z,10.50
2023-04-08T18:01:59.073Z,10.30
2023-04-08T18:04:26.319Z,10.30
2023-04-08T18:06:53.315Z,10.20
2023-04-08T18:09:20.753Z,10.20
2023-04-08T18:11:47.765Z,10.20
2023-04-08T18:14:14.890Z,10.10
2023-04-08T18:16:42.030Z,10.10
2023-04-08T18:19:09.180Z,10.00
2023-04-08T18:21:37.062Z,10.00
2023-04-08T18:24:04.031Z,10.00
2023-04-08T18:26:33.529Z,9.90
2023-04-08T18:29:00.806Z,9.90
2023-04-08T18:31:27.918Z,9.80
2023-04-08T18:33:56.321Z,9.90
2023-04-08T18:36:23.158Z,9.80
2023-04-08T18:38:49.962Z,9.70
2023-04-08T18:41:18.542Z,9.60
2023-04-08T18:43:49.575Z,9.60
2023-04-08T18:46:17.228Z,9.60
2023-04-08T18:48:44.339Z,9.50
2023-04-08T18:51:13.648Z,9.40
2023-04-08T18:53:40.497Z,9.40
2023-04-08T18:56:15.044Z,9.40
2023-04-08T18:58:48.149Z,9.60
2023-04-08T19:01:16.408Z,9.50
2023-04-08T19:03:46.464Z,9.20
2023-04-08T19:06:13.701Z,9.10
2023-04-08T19:08:41.949Z,9.00
2023-04-08T19:11:09.081Z,8.80
2023-04-08T19:13:36.004Z,8.80
2023-04-08T19:16:03.323Z,8.70
2023-04-08T19:18:33.007Z,8.70
2023-04-08T19:21:01.803Z,8.70
2023-04-08T19:23:28.923Z,8.60
2023-04-08T19:25:56.848Z,8.50
2023-04-08T19:28:23.966Z,8.50
2023-04-08T19:30:51.341Z,8.40
2023-04-08T19:33:18.693Z,8.40
2023-04-08T19:35:48.009Z,8.40
2023-04-08T19:38:15.239Z,8.30
2023-04-08T19:40:42.416Z,8.20
2023-04-08T19:43:09.972Z,8.20
2023-04-08T19:45:36.913Z,8.10
2023-04-08T19:48:06.039Z,8.10
2023-04-08T19:50:33.300Z,8.00
2023-04-08T19:53:00.524Z,8.00
2023-04-08T19:55:37.172Z,8.00
2023-04-08T19:58:05.414Z,8.00
2023-04-08T20:00:33.845Z,7.90
2023-04-08T20:03:01.979Z,7.90
2023-04-08T20:05:29.520Z,7.80
2023-04-08T20:07:56.566Z,7.80
2023-04-08T20:10:23.913Z,7.80
2023-04-08T20:12:52.328Z,7.80
2023-04-08T20:15:24.653Z,7.80
2023-04-08T20:17:52.947Z,7.80
2023-04-08T20:20:23.193Z,7.70
2023-04-08T20:22:50.579Z,7.80
2023-04-08T20:25:17.762Z,7.80
2023-04-08T20:27:45.402Z,7.90
2023-04-08T20:30:15.073Z,7.90
2023-04-08T20:32:42.342Z,8.10
2023-04-08T20:35:09.604Z,8.20
2023-04-08T20:37:37.203Z,8.20
2023-04-08T20:40:04.646Z,8.10
2023-04-08T20:42:31.630Z,8.00
2023-04-08T20:45:00.714Z,8.00
2023-04-08T20:47:27.559Z,8.00
2023-04-08T20:49:54.400Z,8.10
2023-04-08T20:52:21.561Z,8.00
2023-04-08T20:54:48.712Z,7.90
2023-04-08T20:57:16.032Z,7.90
2023-04-08T20:59:42.969Z,8.00
2023-04-08T21:02:11.590Z,8.00
2023-04-08T21:04:41.166Z,8.00
2023-04-08T21:07:08.412Z,7.90
2023-04-08T21:09:35.661Z,8.20
2023-04-08T21:12:08.989Z,8.00
2023-04-08T21:14:36.551Z,8.00
2023-04-08T21:17:14.995Z,8.10
2023-04-08T21:19:42.280Z,8.10
2023-04-08T21:22:11.657Z,8.00
2023-04-08T21:24:38.815Z,8.00
2023-04-08T21:27:06.375Z,8.00
2023-04-08T21:29:33.589Z,7.90
2023-04-08T21:32:01.479Z,7.90
2023-04-08T21:34:28.313Z,7.90
2023-04-08T21:36:55.063Z,7.80
2023-04-08T21:39:22.330Z,7.80
2023-04-08T21:41:49.529Z,7.80
2023-04-08T21:44:16.628Z,7.70
2023-04-08T21:46:43.858Z,7.70
2023-04-08T21:49:11.776Z,7.70
2023-04-08T21:51:39.522Z,7.70
2023-04-08T21:54:07.157Z,7.60
2023-04-08T21:56:33.989Z,7.60
2023-04-08T21:59:00.867Z,7.60
2023-04-08T22:01:28.071Z,7.60
2023-04-08T22:03:55.700Z,7.50
2023-04-08T22:06:31.515Z,7.50
2023-04-08T22:08:59.738Z,7.50
2023-04-08T22:11:26.611Z,7.50
2023-04-08T22:13:53.778Z,7.40
2023-04-08T22:16:20.783Z,7.40
2023-04-08T22:18:47.750Z,7.40
2023-04-08T22:21:14.604Z,7.40
2023-04-08T22:23:42.226Z,7.40
2023-04-08T22:26:09.112Z,7.50
2023-04-08T22:28:36.099Z,7.50
2023-04-08T22:31:03.267Z,7.50
2023-04-08T22:33:30.412Z,7.50
2023-04-08T22:35:58.165Z,7.50
2023-04-08T22:38:25.041Z,7.60
2023-04-08T22:40:53.395Z,7.60
2023-04-08T22:43:20.994Z,7.50
2023-04-08T22:45:47.818Z,7.50
2023-04-08T22:48:14.863Z,7.50
2023-04-08T22:50:42.616Z,7.50
2023-04-08T22:53:09.711Z,7.50
2023-04-08T22:55:36.566Z,7.40
2023-04-08T22:58:03.816Z,7.40
2023-04-08T23:00:30.900Z,7.30
2023-04-08T23:02:58.280Z,7.30
2023-04-08T23:05:25.461Z,7.20
2023-04-08T23:07:52.635Z,7.20
2023-04-08T23:10:19.877Z,7.20
2023-04-08T23:12:46.806Z,7.10
2023-04-08T23:15:13.935Z,7.10
2023-04-08T23:17:41.118Z,7.10
2023-04-08T23:20:08.870Z,7.10
2023-04-08T23:22:35.806Z,7.00
2023-04-08T23:25:02.732Z,7.10
2023-04-08T23:27:29.634Z,7.10
2023-04-08T23:29:56.483Z,7.10
2023-04-08T23:32:23.435Z,7.20
2023-04-08T23:34:50.661Z,7.20
2023-04-08T23:37:18.013Z,7.20
2023-04-08T23:39:45.062Z,7.20
2023-04-08T23:42:11.873Z,7.30
2023-04-08T23:44:38.649Z,7.30
2023-04-08T23:47:08.280Z,7.30
2023-04-08T23:49:35.706Z,7.40
2023-04-08T23:52:02.656Z,7.40
2023-04-08T23:54:32.802Z,7.40
2023-04-08T23:57:01.681Z,7.40
2023-04-08T23:59:31.339Z,7.30
